AirNav   ATP
 
 1049 users online  

NK16 Hendricks Field Airport
Gouverneur, New York, USA

GOING TO GOUVERNEUR?


FAA INFORMATION EFFECTIVE 29 MARCH 2018

Location

FAA Identifier: NK16
Lat/Long: 44-22-05.2210N / 075-24-08.7700W
44-22.087017N / 075-24.146167W
44.3681169 / -75.4024361
(estimated)
Elevation: 480 ft. / 146.3 m (surveyed)
Variation: 14W (1985)
From city: 3 miles NE of GOUVERNEUR, NY
Time zone: UTC -4 (UTC -5 during Standard Time)
Zip code: 13642

Airport Operations

Airport use: Private use. Permission required prior to landing
Activation date: 08/1977
Control tower: no
ARTCC: BOSTON CENTER
FSS: BURLINGTON FLIGHT SERVICE STATION
Attendance: DAYLIGHT HOURS
Wind indicator: yes
Segmented circle: no

Airport Communications

UNICOM: 122.8
WX AWOS-3 at OGS (19 nm N): 118.525 (315-393-8982)

Nearby radio navigation aids

VOR radial/distance  VOR name  Freq  Var
ARTr061/37.9WATERTOWN VORTAC109.8012W

 
NDB name  Hdg/Dist  Freq  Var  ID
DRUM052/22.925713WGTB --. - -...
POTSDAM240/30.840014WPTD .--. - -..

Airport Services

Parking: tiedowns
Airframe service: NONE
Powerplant service: NONE
Bottled oxygen: NONE
Bulk oxygen: NONE

Runway Information

Runway 5/23

Dimensions: 2520 x 70 ft. / 768 x 21 m
RY 05/23 WIDTH VARIES 70-80 FT.
Surface: turf, in good condition
SOFT & WET DURG SPRING THAW MAR-MAY; FOR RY CONDS CALL 315-287-1160.
Runway edge markings: RY 05/23 NSTD MKGS; RY 05 EDGE MKD WITH WHITE TIRES, BEGINNING OF RY 05 MKD WITH ORANGE CONES. RY 23 RY EDGE MKD WITH WHITE TIRES.
RUNWAY 5  RUNWAY 23
Traffic pattern: leftleft
Markings: NSTDNSTD
Obstructions: 4 ft. fence, 85 ft. right of centerline
RY 05 +35 FT TREE 85 FT FM THLD 78 FT RIGHT.
23 ft. trees, 69 ft. left of centerline

Airport Ownership and Management from official FAA records

Ownership: Privately-owned
Owner: LEE'S MOBILE ELECTRIC SERVICE
PO BOX 86
GOUVERNEUR, NY 13642
Phone 315-287-1160
Manager: LELAND D. HENDRICK
PO BOX 86
GOUVERNEUR, NY 13642
Phone 315-287-1160

Airport Operational Statistics

Aircraft based on the field: 10
Single engine airplanes: 8
Ultralights: 2
    
Aircraft operations: avg 26/week *
67% local general aviation
33% transient general aviation
* for 12-month period ending 22 August 2002

Additional Remarks

DEER ON & INVOF ARPT.
FENCE PARALLEL TO RY RIGHT SIDE.
PARALLEL TURF TY LCTD NORTHWEST SIDE RY WITH DRAINAGE DITCHES BOTH SIDES.
RY 23 TWO TWRS LCTD LEFT DOWNWIND LEG.

Instrument Procedures

There are no published instrument procedures at NK16.

Some nearby airports with instrument procedures:

KOGS - Ogdensburg International Airport (19 nm N)
KGTB - Wheeler-Sack Army Airfield (23 nm SW)
KPTD - Potsdam Municipal Airport (Damon Field) (27 nm NE)
KART - Watertown International Airport (35 nm SW)
KMSS - Massena International Airport-Richards Field (42 nm NE)
 
Loc | Ops | Rwys | IFR | FBO | Links
Com | Nav | Svcs | Stats | Notes

AirNav Hotels Sweepstakes
 
Area around NK16 (Hendricks Field Airport)
 
Road maps at: MapQuest Bing Google
 
Aerial photo
WARNING: Photo may not be current or correct
Aerial photo of NK16 (Hendricks Field Airport)
Photo by Graeme J. W. Smith
Taken late March 2013
looking southwest.

Do you have a better or more recent aerial photo of Hendricks Field Airport that you would like to share? If so, please send us your photo.

 
Sectional chart

 
Airport distance calculator
Flying to Hendricks Field Airport? Find the distance to fly.

From to NK16

Sunrise and sunset
Times for 23-Apr-2018
 Local
(UTC-4)
 Zulu
(UTC)
Morning civil twilight05:3509:35
Sunrise06:0610:06
Sunset19:5423:54
Evening civil twilight20:2500:25

Current date and time
Zulu (UTC)  24-Apr-2018 00:23:27
Local (UTC-4)  23-Apr-2018 20:23:27
 
METAR
KOGS 
18nm N 
232355Z AUTO 22003KT 10SM CLR 15/00 A3028 RMK AO2 T01530001 10215 20153
KGTB 
24nm SW 
231756Z AUTO 21008KT 10SM CLR 18/M08 A3037 RMK AO2 SLP288 T01821081 10182 20135 57024 $
KPTD 
27nm NE 
232355Z AUTO 28006KT 10SM CLR 17/M09 A3027 RMK AO2
KART 
36nm SW 
232356Z AUTO 06003KT 10SM CLR 14/M06 A3026 RMK AO2 SLP247 T01391056 10189 20139 58018
TAF
KGTB 
24nm SW 
231700Z 2317/2423 18009KT 9999 FEW200 QNH3027INS BECMG 2415/2416 20012KT 9999 BKN150 QNH3017INS TX19/2320Z TN08/2409Z
NOTAMs
Click for the latest NOTAMs
NOTAMs are issued by the DoD/FAA and will open in a separate window not controlled by AirNav.

 

 
 

Would you like to see your business listed on this page?

 If your business provides an interesting product or service to pilots, flight crews, aircraft, or users of the Hendricks Field Airport, you should consider listing it here.  To start the listing process, click on the button below
 
Add a business
 

Other Pages about Hendricks Field Airport

Update a link
 
Copyright © AirNav, LLC. All rights reserved. Privacy Policy  Contact